sensor_id;sensor_type;location;lat;lon;timestamp;P1;durP1;ratioP1;P2;durP2;ratioP2
56752;SDS011;42627;42.646;23.642;2023-07-09T00:00:46;8.15;;;3.75;;
56752;SDS011;42627;42.646;23.642;2023-07-09T00:02:48;6.05;;;3.05;;
56752;SDS011;42627;42.646;23.642;2023-07-09T00:04:49;6.00;;;3.40;;
56752;SDS011;42627;42.646;23.642;2023-07-09T00:06:51;4.78;;;3.03;;
56752;SDS011;42627;42.646;23.642;2023-07-09T00:14:13;6.45;;;2.95;;
56752;SDS011;42627;42.646;23.642;2023-07-09T00:16:23;5.20;;;2.88;;
56752;SDS011;42627;42.646;23.642;2023-07-09T00:18:25;6.00;;;3.28;;
56752;SDS011;42627;42.646;23.642;2023-07-09T00:20:26;5.47;;;3.10;;
56752;SDS011;42627;42.646;23.642;2023-07-09T00:22:27;5.95;;;2.92;;
56752;SDS011;42627;42.646;23.642;2023-07-09T00:24:27;5.53;;;3.13;;
56752;SDS011;42627;42.646;23.642;2023-07-09T00:26:28;5.35;;;2.78;;
56752;SDS011;42627;42.646;23.642;2023-07-09T00:28:39;6.05;;;3.35;;
56752;SDS011;42627;42.646;23.642;2023-07-09T00:30:44;4.78;;;2.53;;
56752;SDS011;42627;42.646;23.642;2023-07-09T00:32:45;5.10;;;3.10;;
56752;SDS011;42627;42.646;23.642;2023-07-09T00:34:46;5.35;;;2.70;;
56752;SDS011;42627;42.646;23.642;2023-07-09T00:36:51;5.10;;;2.70;;
56752;SDS011;42627;42.646;23.642;2023-07-09T00:44:30;6.43;;;3.00;;
56752;SDS011;42627;42.646;23.642;2023-07-09T00:48:26;6.03;;;2.70;;
56752;SDS011;42627;42.646;23.642;2023-07-09T00:52:40;5.28;;;2.83;;
56752;SDS011;42627;42.646;23.642;2023-07-09T00:54:45;6.18;;;2.92;;
56752;SDS011;42627;42.646;23.642;2023-07-09T00:56:46;5.93;;;3.00;;
56752;SDS011;42627;42.646;23.642;2023-07-09T00:59:00;6.50;;;3.00;;
56752;SDS011;42627;42.646;23.642;2023-07-09T01:01:06;6.95;;;3.20;;
56752;SDS011;42627;42.646;23.642;2023-07-09T01:03:10;5.65;;;2.90;;
56752;SDS011;42627;42.646;23.642;2023-07-09T01:05:12;5.22;;;2.70;;
56752;SDS011;42627;42.646;23.642;2023-07-09T01:07:14;6.03;;;3.08;;
56752;SDS011;42627;42.646;23.642;2023-07-09T01:09:28;5.47;;;3.03;;
56752;SDS011;42627;42.646;23.642;2023-07-09T01:14:09;6.40;;;3.35;;
56752;SDS011;42627;42.646;23.642;2023-07-09T01:16:10;6.07;;;3.00;;
56752;SDS011;42627;42.646;23.642;2023-07-09T01:18:11;6.10;;;3.00;;
56752;SDS011;42627;42.646;23.642;2023-07-09T01:20:14;5.93;;;3.13;;
56752;SDS011;42627;42.646;23.642;2023-07-09T01:22:17;8.27;;;3.35;;
56752;SDS011;42627;42.646;23.642;2023-07-09T01:25:01;5.22;;;2.92;;
56752;SDS011;42627;42.646;23.642;2023-07-09T01:26:42;4.50;;;2.67;;
56752;SDS011;42627;42.646;23.642;2023-07-09T01:31:03;5.70;;;2.88;;
56752;SDS011;42627;42.646;23.642;2023-07-09T01:33:05;7.70;;;3.05;;
56752;SDS011;42627;42.646;23.642;2023-07-09T01:35:06;6.13;;;3.17;;
56752;SDS011;42627;42.646;23.642;2023-07-09T01:37:08;7.63;;;3.17;;
56752;SDS011;42627;42.646;23.642;2023-07-09T02:00:32;4.97;;;2.95;;
56752;SDS011;42627;42.646;23.642;2023-07-09T02:02:34;7.05;;;3.45;;
56752;SDS011;42627;42.646;23.642;2023-07-09T02:04:35;8.48;;;3.45;;
56752;SDS011;42627;42.646;23.642;2023-07-09T02:06:36;6.68;;;3.53;;
56752;SDS011;42627;42.646;23.642;2023-07-09T02:13:38;5.15;;;3.22;;
56752;SDS011;42627;42.646;23.642;2023-07-09T02:15:39;5.45;;;3.30;;
56752;SDS011;42627;42.646;23.642;2023-07-09T02:17:44;5.22;;;2.75;;
56752;SDS011;42627;42.646;23.642;2023-07-09T02:19:45;4.68;;;2.85;;
56752;SDS011;42627;42.646;23.642;2023-07-09T02:21:46;8.07;;;3.20;;
56752;SDS011;42627;42.646;23.642;2023-07-09T02:23:47;6.00;;;3.42;;
56752;SDS011;42627;42.646;23.642;2023-07-09T02:25:48;5.88;;;2.90;;
56752;SDS011;42627;42.646;23.642;2023-07-09T02:30:09;7.25;;;2.70;;
56752;SDS011;42627;42.646;23.642;2023-07-09T02:32:13;5.60;;;3.05;;
56752;SDS011;42627;42.646;23.642;2023-07-09T02:34:17;7.25;;;3.10;;
56752;SDS011;42627;42.646;23.642;2023-07-09T02:36:19;5.57;;;2.45;;
56752;SDS011;42627;42.646;23.642;2023-07-09T02:43:18;6.20;;;2.63;;
56752;SDS011;42627;42.646;23.642;2023-07-09T02:45:19;5.28;;;3.20;;
56752;SDS011;42627;42.646;23.642;2023-07-09T02:47:20;6.18;;;3.13;;
56752;SDS011;42627;42.646;23.642;2023-07-09T02:49:21;5.35;;;3.00;;
56752;SDS011;42627;42.646;23.642;2023-07-09T02:51:23;6.70;;;3.33;;
56752;SDS011;42627;42.646;23.642;2023-07-09T02:53:27;5.07;;;2.88;;
56752;SDS011;42627;42.646;23.642;2023-07-09T02:57:50;7.43;;;3.13;;
56752;SDS011;42627;42.646;23.642;2023-07-09T02:59:52;5.82;;;3.28;;
56752;SDS011;42627;42.646;23.642;2023-07-09T03:01:53;5.75;;;2.83;;
56752;SDS011;42627;42.646;23.642;2023-07-09T03:03:54;5.13;;;3.25;;
56752;SDS011;42627;42.646;23.642;2023-07-09T03:11:17;6.22;;;2.90;;
56752;SDS011;42627;42.646;23.642;2023-07-09T03:13:18;5.40;;;2.85;;
56752;SDS011;42627;42.646;23.642;2023-07-09T03:15:19;6.05;;;3.10;;
56752;SDS011;42627;42.646;23.642;2023-07-09T03:17:20;6.25;;;3.17;;
56752;SDS011;42627;42.646;23.642;2023-07-09T03:19:21;5.70;;;3.03;;
56752;SDS011;42627;42.646;23.642;2023-07-09T03:21:23;5.22;;;3.13;;
56752;SDS011;42627;42.646;23.642;2023-07-09T03:23:24;6.47;;;3.17;;
56752;SDS011;42627;42.646;23.642;2023-07-09T03:27:50;6.88;;;3.75;;
56752;SDS011;42627;42.646;23.642;2023-07-09T03:29:51;5.68;;;3.28;;
56752;SDS011;42627;42.646;23.642;2023-07-09T03:31:51;6.28;;;3.20;;
56752;SDS011;42627;42.646;23.642;2023-07-09T03:33:53;8.18;;;3.17;;
56752;SDS011;42627;42.646;23.642;2023-07-09T03:41:29;7.65;;;3.28;;
56752;SDS011;42627;42.646;23.642;2023-07-09T03:43:30;8.38;;;3.05;;
56752;SDS011;42627;42.646;23.642;2023-07-09T03:45:32;6.32;;;2.78;;
56752;SDS011;42627;42.646;23.642;2023-07-09T03:47:33;6.60;;;2.83;;
56752;SDS011;42627;42.646;23.642;2023-07-09T03:49:34;6.13;;;3.42;;
56752;SDS011;42627;42.646;23.642;2023-07-09T03:51:35;4.82;;;3.40;;
56752;SDS011;42627;42.646;23.642;2023-07-09T03:53:36;6.57;;;3.55;;
56752;SDS011;42627;42.646;23.642;2023-07-09T03:57:47;5.70;;;3.03;;
56752;SDS011;42627;42.646;23.642;2023-07-09T03:59:51;9.25;;;3.20;;
56752;SDS011;42627;42.646;23.642;2023-07-09T04:01:55;6.25;;;3.20;;
56752;SDS011;42627;42.646;23.642;2023-07-09T04:03:57;6.20;;;3.50;;
56752;SDS011;42627;42.646;23.642;2023-07-09T04:05:58;4.72;;;2.55;;
56752;SDS011;42627;42.646;23.642;2023-07-09T04:08:01;5.40;;;2.70;;
56752;SDS011;42627;42.646;23.642;2023-07-09T04:10:03;5.35;;;2.70;;
56752;SDS011;42627;42.646;23.642;2023-07-09T04:17:09;4.43;;;2.58;;
56752;SDS011;42627;42.646;23.642;2023-07-09T04:19:10;6.50;;;3.30;;
56752;SDS011;42627;42.646;23.642;2023-07-09T04:21:11;6.07;;;3.38;;
56752;SDS011;42627;42.646;23.642;2023-07-09T04:23:12;5.47;;;2.55;;
56752;SDS011;42627;42.646;23.642;2023-07-09T04:25:13;6.35;;;2.92;;
56752;SDS011;42627;42.646;23.642;2023-07-09T04:27:15;5.10;;;3.13;;
56752;SDS011;42627;42.646;23.642;2023-07-09T04:31:36;6.55;;;3.28;;
56752;SDS011;42627;42.646;23.642;2023-07-09T04:33:37;6.00;;;3.40;;
56752;SDS011;42627;42.646;23.642;2023-07-09T04:35:38;6.57;;;3.10;;
56752;SDS011;42627;42.646;23.642;2023-07-09T04:37:40;6.03;;;3.10;;
56752;SDS011;42627;42.646;23.642;2023-07-09T04:39:41;5.55;;;3.33;;
56752;SDS011;42627;42.646;23.642;2023-07-09T04:41:42;5.82;;;3.45;;
56752;SDS011;42627;42.646;23.642;2023-07-09T04:43:43;8.30;;;4.03;;
56752;SDS011;42627;42.646;23.642;2023-07-09T04:51:03;7.05;;;3.55;;
56752;SDS011;42627;42.646;23.642;2023-07-09T04:53:04;5.63;;;3.50;;
56752;SDS011;42627;42.646;23.642;2023-07-09T04:55:05;7.70;;;3.55;;
56752;SDS011;42627;42.646;23.642;2023-07-09T04:57:08;9.57;;;3.40;;
56752;SDS011;42627;42.646;23.642;2023-07-09T04:59:12;6.35;;;3.60;;
56752;SDS011;42627;42.646;23.642;2023-07-09T05:03:33;6.40;;;4.10;;
56752;SDS011;42627;42.646;23.642;2023-07-09T05:05:34;5.28;;;3.55;;
56752;SDS011;42627;42.646;23.642;2023-07-09T05:07:35;6.25;;;3.58;;
56752;SDS011;42627;42.646;23.642;2023-07-09T05:09:36;11.15;;;4.07;;
56752;SDS011;42627;42.646;23.642;2023-07-09T05:11:37;7.93;;;3.90;;
56752;SDS011;42627;42.646;23.642;2023-07-09T05:13:38;7.40;;;3.67;;
56752;SDS011;42627;42.646;23.642;2023-07-09T05:17:59;9.45;;;3.72;;
56752;SDS011;42627;42.646;23.642;2023-07-09T05:20:00;6.03;;;2.83;;
56752;SDS011;42627;42.646;23.642;2023-07-09T05:22:01;6.38;;;3.25;;
56752;SDS011;42627;42.646;23.642;2023-07-09T05:24:03;6.10;;;2.97;;
56752;SDS011;42627;42.646;23.642;2023-07-09T05:31:21;5.97;;;3.50;;
56752;SDS011;42627;42.646;23.642;2023-07-09T05:33:22;5.97;;;3.83;;
56752;SDS011;42627;42.646;23.642;2023-07-09T05:35:24;4.55;;;2.83;;
56752;SDS011;42627;42.646;23.642;2023-07-09T05:37:25;7.60;;;3.55;;
56752;SDS011;42627;42.646;23.642;2023-07-09T05:39:26;5.35;;;3.53;;
56752;SDS011;42627;42.646;23.642;2023-07-09T05:41:27;6.65;;;3.45;;
56752;SDS011;42627;42.646;23.642;2023-07-09T05:43:28;8.77;;;3.88;;
56752;SDS011;42627;42.646;23.642;2023-07-09T05:47:52;7.95;;;3.58;;
56752;SDS011;42627;42.646;23.642;2023-07-09T05:49:53;5.93;;;3.28;;
56752;SDS011;42627;42.646;23.642;2023-07-09T05:51:53;5.00;;;3.13;;
56752;SDS011;42627;42.646;23.642;2023-07-09T05:53:54;6.68;;;3.42;;
56752;SDS011;42627;42.646;23.642;2023-07-09T06:01:13;6.63;;;2.95;;
56752;SDS011;42627;42.646;23.642;2023-07-09T06:03:14;5.53;;;3.15;;
56752;SDS011;42627;42.646;23.642;2023-07-09T06:05:15;7.07;;;3.00;;
56752;SDS011;42627;42.646;23.642;2023-07-09T06:07:16;4.97;;;2.63;;
56752;SDS011;42627;42.646;23.642;2023-07-09T06:09:18;5.55;;;3.15;;
56752;SDS011;42627;42.646;23.642;2023-07-09T06:11:19;5.65;;;3.30;;
56752;SDS011;42627;42.646;23.642;2023-07-09T06:13:20;8.93;;;2.90;;
56752;SDS011;42627;42.646;23.642;2023-07-09T06:17:41;6.45;;;3.00;;
56752;SDS011;42627;42.646;23.642;2023-07-09T06:19:42;5.43;;;3.15;;
56752;SDS011;42627;42.646;23.642;2023-07-09T06:21:43;7.53;;;3.30;;
56752;SDS011;42627;42.646;23.642;2023-07-09T06:23:45;6.32;;;3.30;;
56752;SDS011;42627;42.646;23.642;2023-07-09T06:47:45;8.82;;;4.07;;
56752;SDS011;42627;42.646;23.642;2023-07-09T06:49:46;6.68;;;3.40;;
56752;SDS011;42627;42.646;23.642;2023-07-09T06:51:48;8.02;;;3.88;;
56752;SDS011;42627;42.646;23.642;2023-07-09T06:53:49;7.53;;;3.50;;
56752;SDS011;42627;42.646;23.642;2023-07-09T06:55:51;5.75;;;3.15;;
56752;SDS011;42627;42.646;23.642;2023-07-09T06:57:58;8.88;;;3.47;;
56752;SDS011;42627;42.646;23.642;2023-07-09T07:05:16;7.88;;;3.80;;
56752;SDS011;42627;42.646;23.642;2023-07-09T07:07:18;6.28;;;3.28;;
56752;SDS011;42627;42.646;23.642;2023-07-09T07:09:19;5.82;;;3.47;;
56752;SDS011;42627;42.646;23.642;2023-07-09T07:11:20;6.53;;;3.28;;
56752;SDS011;42627;42.646;23.642;2023-07-09T07:13:22;5.05;;;2.90;;
56752;SDS011;42627;42.646;23.642;2023-07-09T07:17:45;6.65;;;3.58;;
56752;SDS011;42627;42.646;23.642;2023-07-09T07:19:46;5.75;;;3.10;;
56752;SDS011;42627;42.646;23.642;2023-07-09T07:21:48;6.18;;;3.28;;
56752;SDS011;42627;42.646;23.642;2023-07-09T07:51:26;3.60;;;2.30;;
56752;SDS011;42627;42.646;23.642;2023-07-09T07:53:28;3.92;;;2.03;;
56752;SDS011;42627;42.646;23.642;2023-07-09T07:55:30;4.03;;;2.35;;
56752;SDS011;42627;42.646;23.642;2023-07-09T07:57:31;5.85;;;1.73;;
56752;SDS011;42627;42.646;23.642;2023-07-09T07:59:32;5.55;;;2.65;;
56752;SDS011;42627;42.646;23.642;2023-07-09T08:01:34;4.22;;;2.03;;
56752;SDS011;42627;42.646;23.642;2023-07-09T08:03:35;5.22;;;2.65;;
56752;SDS011;42627;42.646;23.642;2023-07-09T08:05:36;4.40;;;1.88;;
56752;SDS011;42627;42.646;23.642;2023-07-09T08:07:38;3.20;;;1.48;;
56752;SDS011;42627;42.646;23.642;2023-07-09T08:09:39;3.17;;;1.75;;
56752;SDS011;42627;42.646;23.642;2023-07-09T08:11:40;3.80;;;1.83;;
56752;SDS011;42627;42.646;23.642;2023-07-09T08:13:41;4.13;;;2.30;;
56752;SDS011;42627;42.646;23.642;2023-07-09T08:15:42;3.97;;;2.30;;
56752;SDS011;42627;42.646;23.642;2023-07-09T08:17:45;5.75;;;2.05;;
56752;SDS011;42627;42.646;23.642;2023-07-09T08:19:46;4.40;;;2.22;;
56752;SDS011;42627;42.646;23.642;2023-07-09T08:21:56;5.47;;;2.55;;
56752;SDS011;42627;42.646;23.642;2023-07-09T08:23:59;4.95;;;2.20;;
56752;SDS011;42627;42.646;23.642;2023-07-09T08:26:00;5.30;;;2.25;;
56752;SDS011;42627;42.646;23.642;2023-07-09T08:28:02;4.13;;;2.03;;
56752;SDS011;42627;42.646;23.642;2023-07-09T08:30:04;6.20;;;2.28;;
56752;SDS011;42627;42.646;23.642;2023-07-09T08:32:05;5.03;;;2.45;;
56752;SDS011;42627;42.646;23.642;2023-07-09T08:34:06;5.18;;;2.55;;
56752;SDS011;42627;42.646;23.642;2023-07-09T08:36:07;4.03;;;2.00;;
56752;SDS011;42627;42.646;23.642;2023-07-09T08:38:08;4.22;;;2.00;;
56752;SDS011;42627;42.646;23.642;2023-07-09T08:40:11;3.95;;;2.13;;
56752;SDS011;42627;42.646;23.642;2023-07-09T08:42:17;6.82;;;2.20;;
56752;SDS011;42627;42.646;23.642;2023-07-09T08:46:44;6.07;;;2.58;;
56752;SDS011;42627;42.646;23.642;2023-07-09T08:48:48;5.53;;;2.58;;
56752;SDS011;42627;42.646;23.642;2023-07-09T08:50:54;4.82;;;2.20;;
56752;SDS011;42627;42.646;23.642;2023-07-09T08:52:55;5.28;;;2.67;;
56752;SDS011;42627;42.646;23.642;2023-07-09T08:54:59;5.57;;;2.22;;
56752;SDS011;42627;42.646;23.642;2023-07-09T08:57:07;4.53;;;2.30;;
56752;SDS011;42627;42.646;23.642;2023-07-09T08:59:14;5.40;;;2.45;;
56752;SDS011;42627;42.646;23.642;2023-07-09T09:01:18;6.10;;;2.95;;
56752;SDS011;42627;42.646;23.642;2023-07-09T09:03:27;6.18;;;2.38;;
56752;SDS011;42627;42.646;23.642;2023-07-09T09:05:32;4.70;;;2.15;;
56752;SDS011;42627;42.646;23.642;2023-07-09T09:07:43;4.63;;;2.13;;
56752;SDS011;42627;42.646;23.642;2023-07-09T09:14:06;4.20;;;2.22;;
56752;SDS011;42627;42.646;23.642;2023-07-09T09:16:32;3.97;;;2.22;;
56752;SDS011;42627;42.646;23.642;2023-07-09T09:18:36;6.40;;;2.00;;
56752;SDS011;42627;42.646;23.642;2023-07-09T09:20:38;6.68;;;2.15;;
56752;SDS011;42627;42.646;23.642;2023-07-09T09:22:44;4.68;;;2.65;;
56752;SDS011;42627;42.646;23.642;2023-07-09T09:26:49;4.78;;;2.35;;
56752;SDS011;42627;42.646;23.642;2023-07-09T09:28:53;4.63;;;2.65;;
56752;SDS011;42627;42.646;23.642;2023-07-09T09:30:54;6.20;;;2.47;;
56752;SDS011;42627;42.646;23.642;2023-07-09T09:33:02;3.92;;;2.10;;
56752;SDS011;42627;42.646;23.642;2023-07-09T09:35:47;5.05;;;2.17;;
56752;SDS011;42627;42.646;23.642;2023-07-09T09:37:30;4.75;;;2.60;;
56752;SDS011;42627;42.646;23.642;2023-07-09T09:39:31;7.53;;;2.67;;
56752;SDS011;42627;42.646;23.642;2023-07-09T09:41:33;4.32;;;2.58;;
56752;SDS011;42627;42.646;23.642;2023-07-09T09:43:37;5.95;;;2.45;;
56752;SDS011;42627;42.646;23.642;2023-07-09T09:45:38;5.45;;;2.78;;
56752;SDS011;42627;42.646;23.642;2023-07-09T09:47:40;5.43;;;2.33;;
56752;SDS011;42627;42.646;23.642;2023-07-09T09:49:42;5.05;;;2.42;;
56752;SDS011;42627;42.646;23.642;2023-07-09T09:51:44;5.35;;;2.60;;
56752;SDS011;42627;42.646;23.642;2023-07-09T09:53:49;6.60;;;2.70;;
56752;SDS011;42627;42.646;23.642;2023-07-09T09:55:51;7.50;;;2.50;;
56752;SDS011;42627;42.646;23.642;2023-07-09T09:57:53;5.22;;;2.53;;
56752;SDS011;42627;42.646;23.642;2023-07-09T09:59:55;5.15;;;2.53;;
56752;SDS011;42627;42.646;23.642;2023-07-09T10:02:01;4.18;;;2.30;;
56752;SDS011;42627;42.646;23.642;2023-07-09T10:04:15;5.35;;;2.35;;
56752;SDS011;42627;42.646;23.642;2023-07-09T10:06:18;4.60;;;2.53;;
56752;SDS011;42627;42.646;23.642;2023-07-09T10:08:34;4.65;;;2.30;;
56752;SDS011;42627;42.646;23.642;2023-07-09T10:10:42;4.57;;;2.33;;
56752;SDS011;42627;42.646;23.642;2023-07-09T10:12:53;4.82;;;2.33;;
56752;SDS011;42627;42.646;23.642;2023-07-09T10:17:16;4.45;;;2.60;;
56752;SDS011;42627;42.646;23.642;2023-07-09T10:21:31;4.93;;;2.13;;
56752;SDS011;42627;42.646;23.642;2023-07-09T10:23:36;4.88;;;2.53;;
56752;SDS011;42627;42.646;23.642;2023-07-09T10:40:57;3.80;;;1.98;;
56752;SDS011;42627;42.646;23.642;2023-07-09T10:43:02;6.32;;;1.95;;
56752;SDS011;42627;42.646;23.642;2023-07-09T10:45:13;4.22;;;2.08;;
56752;SDS011;42627;42.646;23.642;2023-07-09T10:47:25;3.60;;;1.98;;
56752;SDS011;42627;42.646;23.642;2023-07-09T10:49:30;4.65;;;1.90;;
56752;SDS011;42627;42.646;23.642;2023-07-09T10:51:39;3.20;;;1.73;;
56752;SDS011;42627;42.646;23.642;2023-07-09T10:53:43;5.03;;;1.98;;
56752;SDS011;42627;42.646;23.642;2023-07-09T10:55:50;4.97;;;2.28;;
56752;SDS011;42627;42.646;23.642;2023-07-09T10:58:02;5.65;;;2.75;;
56752;SDS011;42627;42.646;23.642;2023-07-09T11:00:07;4.38;;;1.98;;
56752;SDS011;42627;42.646;23.642;2023-07-09T11:02:24;3.85;;;2.00;;
56752;SDS011;42627;42.646;23.642;2023-07-09T11:04:29;4.43;;;2.38;;
56752;SDS011;42627;42.646;23.642;2023-07-09T11:06:34;4.18;;;1.92;;
56752;SDS011;42627;42.646;23.642;2023-07-09T11:08:38;4.65;;;2.22;;
56752;SDS011;42627;42.646;23.642;2023-07-09T11:10:46;4.72;;;1.80;;
56752;SDS011;42627;42.646;23.642;2023-07-09T11:12:53;3.53;;;1.73;;
56752;SDS011;42627;42.646;23.642;2023-07-09T11:15:03;4.28;;;2.10;;
56752;SDS011;42627;42.646;23.642;2023-07-09T11:17:05;3.80;;;1.90;;
56752;SDS011;42627;42.646;23.642;2023-07-09T11:19:16;7.45;;;2.55;;
56752;SDS011;42627;42.646;23.642;2023-07-09T11:21:17;6.50;;;2.03;;
56752;SDS011;42627;42.646;23.642;2023-07-09T11:23:20;4.07;;;2.35;;
56752;SDS011;42627;42.646;23.642;2023-07-09T11:25:30;3.83;;;1.90;;
56752;SDS011;42627;42.646;23.642;2023-07-09T11:27:31;4.55;;;2.33;;
56752;SDS011;42627;42.646;23.642;2023-07-09T11:29:32;6.53;;;2.00;;
56752;SDS011;42627;42.646;23.642;2023-07-09T11:31:35;4.32;;;2.13;;
56752;SDS011;42627;42.646;23.642;2023-07-09T11:33:45;5.88;;;2.22;;
56752;SDS011;42627;42.646;23.642;2023-07-09T11:35:48;3.85;;;2.13;;
56752;SDS011;42627;42.646;23.642;2023-07-09T11:37:50;5.45;;;2.42;;
56752;SDS011;42627;42.646;23.642;2023-07-09T11:39:55;5.00;;;2.35;;
56752;SDS011;42627;42.646;23.642;2023-07-09T11:42:03;6.20;;;2.45;;
56752;SDS011;42627;42.646;23.642;2023-07-09T11:44:10;5.63;;;2.33;;
56752;SDS011;42627;42.646;23.642;2023-07-09T11:46:13;3.00;;;1.75;;
56752;SDS011;42627;42.646;23.642;2023-07-09T11:48:22;3.88;;;2.10;;
56752;SDS011;42627;42.646;23.642;2023-07-09T11:50:26;3.28;;;2.00;;
56752;SDS011;42627;42.646;23.642;2023-07-09T11:52:33;5.20;;;2.45;;
56752;SDS011;42627;42.646;23.642;2023-07-09T11:54:35;4.43;;;2.20;;
56752;SDS011;42627;42.646;23.642;2023-07-09T11:56:36;5.40;;;2.10;;
56752;SDS011;42627;42.646;23.642;2023-07-09T11:58:47;5.97;;;2.08;;
56752;SDS011;42627;42.646;23.642;2023-07-09T12:00:49;4.32;;;2.13;;
56752;SDS011;42627;42.646;23.642;2023-07-09T12:02:50;5.65;;;2.22;;
56752;SDS011;42627;42.646;23.642;2023-07-09T12:04:52;4.32;;;2.13;;
56752;SDS011;42627;42.646;23.642;2023-07-09T12:06:56;4.68;;;2.28;;
56752;SDS011;42627;42.646;23.642;2023-07-09T12:08:58;4.47;;;2.17;;
56752;SDS011;42627;42.646;23.642;2023-07-09T12:10:59;3.90;;;1.90;;
56752;SDS011;42627;42.646;23.642;2023-07-09T12:13:00;5.70;;;2.38;;
56752;SDS011;42627;42.646;23.642;2023-07-09T12:15:12;4.03;;;1.92;;
56752;SDS011;42627;42.646;23.642;2023-07-09T12:17:17;3.72;;;2.08;;
56752;SDS011;42627;42.646;23.642;2023-07-09T12:19:19;4.03;;;1.90;;
56752;SDS011;42627;42.646;23.642;2023-07-09T12:21:20;4.88;;;2.28;;
56752;SDS011;42627;42.646;23.642;2023-07-09T12:23:32;6.80;;;2.42;;
56752;SDS011;42627;42.646;23.642;2023-07-09T12:25:33;4.15;;;1.90;;
56752;SDS011;42627;42.646;23.642;2023-07-09T12:27:35;4.13;;;2.25;;
56752;SDS011;42627;42.646;23.642;2023-07-09T12:29:37;5.97;;;2.45;;
56752;SDS011;42627;42.646;23.642;2023-07-09T12:31:39;4.15;;;1.83;;
56752;SDS011;42627;42.646;23.642;2023-07-09T12:33:47;4.55;;;1.92;;
56752;SDS011;42627;42.646;23.642;2023-07-09T12:35:50;3.40;;;2.00;;
56752;SDS011;42627;42.646;23.642;2023-07-09T12:37:53;5.63;;;2.25;;
56752;SDS011;42627;42.646;23.642;2023-07-09T12:39:58;6.05;;;2.10;;
56752;SDS011;42627;42.646;23.642;2023-07-09T12:42:00;5.07;;;2.20;;
56752;SDS011;42627;42.646;23.642;2023-07-09T12:44:02;5.03;;;2.10;;
56752;SDS011;42627;42.646;23.642;2023-07-09T12:46:03;3.75;;;2.17;;
56752;SDS011;42627;42.646;23.642;2023-07-09T12:48:04;4.03;;;2.00;;
56752;SDS011;42627;42.646;23.642;2023-07-09T12:50:19;3.83;;;1.98;;
56752;SDS011;42627;42.646;23.642;2023-07-09T12:54:22;5.55;;;1.92;;
56752;SDS011;42627;42.646;23.642;2023-07-09T12:56:23;5.63;;;1.85;;
56752;SDS011;42627;42.646;23.642;2023-07-09T12:58:25;4.20;;;2.05;;
56752;SDS011;42627;42.646;23.642;2023-07-09T13:00:29;3.60;;;1.98;;
56752;SDS011;42627;42.646;23.642;2023-07-09T13:02:30;3.75;;;1.90;;
56752;SDS011;42627;42.646;23.642;2023-07-09T13:04:38;3.55;;;1.70;;
56752;SDS011;42627;42.646;23.642;2023-07-09T13:06:39;4.00;;;2.08;;
56752;SDS011;42627;42.646;23.642;2023-07-09T13:08:42;2.95;;;1.92;;
56752;SDS011;42627;42.646;23.642;2023-07-09T13:10:44;3.15;;;1.80;;
56752;SDS011;42627;42.646;23.642;2023-07-09T13:12:46;5.10;;;2.00;;
56752;SDS011;42627;42.646;23.642;2023-07-09T13:14:54;3.72;;;2.13;;
56752;SDS011;42627;42.646;23.642;2023-07-09T13:17:02;4.63;;;2.40;;
56752;SDS011;42627;42.646;23.642;2023-07-09T13:19:03;3.15;;;1.85;;
56752;SDS011;42627;42.646;23.642;2023-07-09T13:21:08;4.72;;;2.75;;
56752;SDS011;42627;42.646;23.642;2023-07-09T13:23:14;4.60;;;2.20;;
56752;SDS011;42627;42.646;23.642;2023-07-09T13:25:15;3.60;;;1.88;;
56752;SDS011;42627;42.646;23.642;2023-07-09T13:27:17;4.63;;;2.00;;
56752;SDS011;42627;42.646;23.642;2023-07-09T13:29:19;3.17;;;1.80;;
56752;SDS011;42627;42.646;23.642;2023-07-09T13:31:20;5.03;;;1.92;;
56752;SDS011;42627;42.646;23.642;2023-07-09T13:33:21;3.35;;;1.98;;
56752;SDS011;42627;42.646;23.642;2023-07-09T13:35:22;3.63;;;2.10;;
56752;SDS011;42627;42.646;23.642;2023-07-09T13:37:24;3.38;;;1.83;;
56752;SDS011;42627;42.646;23.642;2023-07-09T13:39:25;6.63;;;1.98;;
56752;SDS011;42627;42.646;23.642;2023-07-09T13:41:26;3.28;;;1.98;;
56752;SDS011;42627;42.646;23.642;2023-07-09T13:43:31;5.07;;;2.05;;
56752;SDS011;42627;42.646;23.642;2023-07-09T13:45:32;4.05;;;2.00;;
56752;SDS011;42627;42.646;23.642;2023-07-09T13:47:33;3.25;;;1.90;;
56752;SDS011;42627;42.646;23.642;2023-07-09T13:49:36;3.90;;;1.88;;
56752;SDS011;42627;42.646;23.642;2023-07-09T13:51:37;4.05;;;1.73;;
56752;SDS011;42627;42.646;23.642;2023-07-09T13:53:38;4.68;;;2.22;;
56752;SDS011;42627;42.646;23.642;2023-07-09T13:55:39;4.10;;;2.13;;
56752;SDS011;42627;42.646;23.642;2023-07-09T13:57:41;4.20;;;1.98;;
56752;SDS011;42627;42.646;23.642;2023-07-09T13:59:43;4.45;;;1.77;;
56752;SDS011;42627;42.646;23.642;2023-07-09T14:01:45;4.45;;;1.90;;
56752;SDS011;42627;42.646;23.642;2023-07-09T14:03:46;5.72;;;2.25;;
56752;SDS011;42627;42.646;23.642;2023-07-09T14:05:48;4.32;;;1.80;;
56752;SDS011;42627;42.646;23.642;2023-07-09T14:07:49;4.47;;;1.88;;
56752;SDS011;42627;42.646;23.642;2023-07-09T14:09:50;3.20;;;1.90;;
56752;SDS011;42627;42.646;23.642;2023-07-09T14:11:51;3.70;;;1.95;;
56752;SDS011;42627;42.646;23.642;2023-07-09T14:13:53;4.03;;;1.60;;
56752;SDS011;42627;42.646;23.642;2023-07-09T14:15:54;3.50;;;1.90;;
56752;SDS011;42627;42.646;23.642;2023-07-09T14:17:55;4.00;;;2.25;;
56752;SDS011;42627;42.646;23.642;2023-07-09T14:19:56;4.10;;;1.73;;
56752;SDS011;42627;42.646;23.642;2023-07-09T14:21:59;3.10;;;1.63;;
56752;SDS011;42627;42.646;23.642;2023-07-09T14:24:00;3.25;;;1.73;;
56752;SDS011;42627;42.646;23.642;2023-07-09T14:26:01;4.30;;;1.80;;
56752;SDS011;42627;42.646;23.642;2023-07-09T14:28:13;3.30;;;2.28;;
56752;SDS011;42627;42.646;23.642;2023-07-09T14:30:18;3.17;;;1.80;;
56752;SDS011;42627;42.646;23.642;2023-07-09T14:34:29;5.40;;;1.88;;
56752;SDS011;42627;42.646;23.642;2023-07-09T14:36:32;3.92;;;2.03;;
56752;SDS011;42627;42.646;23.642;2023-07-09T14:38:34;4.07;;;1.67;;
56752;SDS011;42627;42.646;23.642;2023-07-09T14:40:35;3.50;;;2.17;;
56752;SDS011;42627;42.646;23.642;2023-07-09T14:42:37;4.20;;;2.22;;
56752;SDS011;42627;42.646;23.642;2023-07-09T14:44:39;9.25;;;2.15;;
56752;SDS011;42627;42.646;23.642;2023-07-09T14:46:40;4.15;;;2.10;;
56752;SDS011;42627;42.646;23.642;2023-07-09T14:48:41;4.47;;;2.00;;
56752;SDS011;42627;42.646;23.642;2023-07-09T14:50:42;4.07;;;2.20;;
56752;SDS011;42627;42.646;23.642;2023-07-09T14:52:47;2.92;;;1.90;;
56752;SDS011;42627;42.646;23.642;2023-07-09T14:54:48;3.72;;;1.73;;
56752;SDS011;42627;42.646;23.642;2023-07-09T14:56:51;4.65;;;2.20;;
56752;SDS011;42627;42.646;23.642;2023-07-09T14:58:53;4.30;;;2.17;;
56752;SDS011;42627;42.646;23.642;2023-07-09T15:00:54;3.53;;;2.08;;
56752;SDS011;42627;42.646;23.642;2023-07-09T15:02:55;3.60;;;1.70;;
56752;SDS011;42627;42.646;23.642;2023-07-09T15:04:56;6.90;;;2.20;;
56752;SDS011;42627;42.646;23.642;2023-07-09T15:06:57;5.65;;;2.35;;
56752;SDS011;42627;42.646;23.642;2023-07-09T15:09:16;4.03;;;2.05;;
56752;SDS011;42627;42.646;23.642;2023-07-09T15:11:17;4.63;;;1.90;;
56752;SDS011;42627;42.646;23.642;2023-07-09T15:13:21;4.78;;;1.92;;
56752;SDS011;42627;42.646;23.642;2023-07-09T15:15:30;5.07;;;2.30;;
56752;SDS011;42627;42.646;23.642;2023-07-09T15:17:31;6.32;;;1.92;;
56752;SDS011;42627;42.646;23.642;2023-07-09T15:19:35;3.88;;;2.00;;
56752;SDS011;42627;42.646;23.642;2023-07-09T15:21:39;4.18;;;2.05;;
56752;SDS011;42627;42.646;23.642;2023-07-09T15:23:40;4.60;;;1.92;;